Gesamt
Normanton Airport (Normanton, Queensland) NTN Wetter
|
Normanton, Queensland (YNTN)
Klarer Himmel
Leichter Wind |
|
27 °C |
NTN Terminal Area Forecast
| Date | Time (AEST) | Flight Rules | Wind Dir. | Speed | Type | Height AGL (ft) | Visibility | Remarks | ||||||
|---|---|---|---|---|---|---|---|---|---|---|---|---|---|---|
| 04-Sep | 17:00 | VFR | 100° | 6 kt | Clouds and Visibility are OK | >= 6 miles | ||||||||
| 04-Sep | 16:00 | VFR | 100° | 6 kt | Clouds and Visibility are OK | >= 6 miles | ||||||||
| 04-Sep | 15:00 | VFR | 100° | 6 kt | Clouds and Visibility are OK | >= 6 miles | ||||||||
| 04-Sep | 14:00 | VFR | 100° | 6 kt | Clouds and Visibility are OK | >= 6 miles | ||||||||
| 04-Sep | 13:00 | VFR | 60° | 8 kt | Clouds and Visibility are OK | >= 6 miles | ||||||||
| 04-Sep | 12:00 | VFR | 60° | 8 kt | Clouds and Visibility are OK | >= 6 miles | ||||||||
| 04-Sep | 11:00 | VFR | 60° | 8 kt | Clouds and Visibility are OK | >= 6 miles | ||||||||
| 04-Sep | 10:00 | VFR | 60° | 8 kt | Clouds and Visibility are OK | >= 6 miles | ||||||||
Kürzlicher METAR-Verlauf für NTN
| Date | Time (AEST) | Flight Rules | Wind Dir. | Speed | Type | Height AGL (ft) | Visibility | Temp (°C) | Temp (°F) | Dew Point (°C) | Dew Point (°F) | Rel. Humid. | Pressure | Density Altitude | Remarks |
|---|---|---|---|---|---|---|---|---|---|---|---|---|---|---|---|
| 04-Sep | 10:00 | VFR | 10° | 7 kt | 10000 meters | 27° | 80° | 17° | 62° | 54% | 1020 mb | 1.312 ft | |||
| 04-Sep | 09:00 | VFR | 10° | 8 kt | 10000 meters | 25° | 77° | 18° | 64° | 65% | 1020 mb | 1.072 ft | |||
| 04-Sep | 08:00 | VFR | 50° | 5 kt | 10000 meters | 22° | 71° | 18° | 64° | 78% | 1019 mb | 742 ft | |||
| 04-Sep | 07:00 | VFR | 40° | 3 kt | 10000 meters | 18° | 64° | 17° | 62° | 94% | 1019 mb | 262 ft | |||
| 04-Sep | 06:00 | VFR | 50° | 4 kt | 10000 meters | 18° | 64° | 17° | 62° | 94% | 1018 mb | 291 ft | |||
| 04-Sep | 05:00 | VFR | 60° | 5 kt | 10000 meters | 18° | 64° | 17° | 62° | 94% | 1017 mb | 321 ft | |||
| 04-Sep | 04:00 | VFR | 70° | 5 kt | 10000 meters | 19° | 66° | 17° | 62° | 88% | 1017 mb | 441 ft | |||
| 04-Sep | 03:00 | VFR | 260° | 2 kt | 10000 meters | 21° | 69° | 19° | 66° | 88% | 1016 mb | 711 ft | |||
| 04-Sep | 02:00 | VFR | 230° | 7 kt | 10000 meters | 21° | 69° | 19° | 66° | 88% | 1016 mb | 711 ft | |||
| 04-Sep | 01:00 | VFR | 230° | 7 kt | 10000 meters | 22° | 71° | 19° | 66° | 83% | 1016 mb | 831 ft | |||
| 04-Sep | 00:00 | VFR | 240° | 7 kt | 10000 meters | 22° | 71° | 19° | 66° | 83% | 1017 mb | 801 ft | |||
| 03-Sep | 23:00 | VFR | 260° | 6 kt | 10000 meters | 22° | 71° | 18° | 64° | 78% | 1017 mb | 801 ft | |||
| 03-Sep | 22:00 | VFR | 270° | 5 kt | 10000 meters | 23° | 73° | 18° | 64° | 73% | 1017 mb | 921 ft | |||
| 03-Sep | 21:00 | VFR | 290° | 5 kt | 10000 meters | 24° | 75° | 18° | 64° | 69% | 1017 mb | 1.041 ft | |||
| 03-Sep | 20:00 | VFR | 300° | 7 kt | 10000 meters | 25° | 77° | 17° | 62° | 61% | 1016 mb | 1.191 ft | |||
| 03-Sep | 19:00 | VFR | 290° | 8 kt | 10000 meters | 27° | 80° | 16° | 60° | 51% | 1016 mb | 1.431 ft | |||
| 03-Sep | 18:00 | VFR | 310° | 10 kt | 10000 meters | 30° | 86° | 16° | 60° | 43% | 1015 mb | 1.820 ft | |||
| 03-Sep | 17:00 | VFR | 80° | 3 kt | 10000 meters | 33° | 91° | 10° | 50° | 24% | 1015 mb | 2.180 ft | |||
| 03-Sep | 16:00 | VFR | 140° | 6 kt | 10000 meters | 34° | 93° | 11° | 51° | 25% | 1015 mb | 2.300 ft | |||
| 03-Sep | 15:00 | VFR | 90° | 5 kt | 10000 meters | 33° | 91° | 11° | 51° | 26% | 1016 mb | 2.151 ft | |||
| 03-Sep | 14:00 | VFR | 30° | 6 kt | 10000 meters | 32° | 89° | 12° | 53° | 29% | 1017 mb | 2.001 ft | |||
| 03-Sep | 13:00 | VFR | 320° | 5 kt | 10000 meters | 31° | 87° | 14° | 57° | 36% | 1018 mb | 1.851 ft | |||
| 03-Sep | 12:00 | VFR | 10° | 5 kt | 10000 meters | 31° | 87° | 14° | 57° | 36% | 1019 mb | 1.822 ft | |||
| 03-Sep | 11:00 | VFR | 10° | 6 kt | 10000 meters | 30° | 86° | 15° | 59° | 40% | 1020 mb | 1.672 ft |
Anmelden
| Ihr Browser wird nicht unterstützt. aktualisieren Sie Ihren Browser |
